Milnesand, New Mexico
Current Conditions -  °F | °C
As of 10:58 AM on Friday 31 Oct 2014 (Local Time) from KCVS Reporting Station
Clear Clear  
Wind Chill: 55°   Ceiling: Unl
Heat Index: 55°   Visibility: 10mi
Dew Point: 32°   Wind: 8mph
Humidity: 41%   Direction: 140°SE
Pressure: 30.47"   Gusts: NA
Location:  33.64°N, 103.34°W
Report Text: KCVS 311658Z AUTO 14007KT 10SM CLR 13/00 A3047 RMK AO2 PRESRR SLP298
Loading
Personal Weather Stations






























Interactive Weather Map
Tropical Storm Tracking
New forecast layout! Learn more

10-Day Weather Forecast

Advertisements
Track Severe Weather on mobile